Terminal Aerodrome Forecast
Issued by NWS

Home | Current Version | Previous Version | Text Only | Print | Product List | Glossary On
Versions: 1 2 3 4 5 6 7 8 9 10 11 12 13 14 15 16 17 18 19 20 21 22 23
751
FTUS43 KABR 230237 AAE
TAFATY
TAF AMD
KATY 230237Z 2303/2324 09008KT 2SM -SN OVC020
      TEMPO 2303/2306 1SM -SN OVC010
     FM230600 12004KT 5SM -SN OVC015
     FM230800 VRB03KT P6SM OVC007
     FM231700 30007KT P6SM BKN015=

USA.gov is the U.S. government's official web portal to all federal, state and local government web resources and services.